Terminal Aerodrome Forecast
Issued by NWS

Home | Current Version | Previous Version | Text Only | Print | Product List | Glossary Off
Versions: 1 2 3 4 5 6 7 8 9 10 11 12 13 14 15 16 17 18 19 20 21 22

000
FTUS43 KUNR 222100 AAA
TAFGCC
TAF AMD
KGCC 222135Z 2222/2318 17012KT P6SM FEW090
     FM222200 17012KT P6SM VCTS SCT090CB
     FM222300 16012KT P6SM SCT090
     FM230400 16009KT P6SM SKC=

USA.gov is the U.S. government's official web portal to all federal, state and local government web resources and services.